sensor_id;sensor_type;location;lat;lon;timestamp;P1;durP1;ratioP1;P2;durP2;ratioP2
70832;SDS011;71099;59.528;17.886;2023-08-08T00:00:25;1.50;;;0.93;;
70832;SDS011;71099;59.528;17.886;2023-08-08T00:02:50;3.75;;;0.73;;
70832;SDS011;71099;59.528;17.886;2023-08-08T00:05:16;2.78;;;0.57;;
70832;SDS011;71099;59.528;17.886;2023-08-08T00:07:41;3.30;;;0.85;;
70832;SDS011;71099;59.528;17.886;2023-08-08T00:10:07;1.80;;;0.55;;
70832;SDS011;71099;59.528;17.886;2023-08-08T00:12:33;2.50;;;0.60;;
70832;SDS011;71099;59.528;17.886;2023-08-08T00:14:59;3.60;;;0.80;;
70832;SDS011;71099;59.528;17.886;2023-08-08T00:17:24;4.97;;;1.33;;
70832;SDS011;71099;59.528;17.886;2023-08-08T00:19:50;1.48;;;0.70;;
70832;SDS011;71099;59.528;17.886;2023-08-08T00:22:16;2.63;;;0.73;;
70832;SDS011;71099;59.528;17.886;2023-08-08T00:24:41;2.20;;;0.65;;
70832;SDS011;71099;59.528;17.886;2023-08-08T00:27:06;1.42;;;0.60;;
70832;SDS011;71099;59.528;17.886;2023-08-08T00:29:32;4.05;;;1.05;;
70832;SDS011;71099;59.528;17.886;2023-08-08T00:31:58;1.52;;;0.50;;
70832;SDS011;71099;59.528;17.886;2023-08-08T00:34:23;2.25;;;0.88;;
70832;SDS011;71099;59.528;17.886;2023-08-08T00:36:48;3.80;;;0.85;;
70832;SDS011;71099;59.528;17.886;2023-08-08T00:39:14;1.90;;;0.55;;
70832;SDS011;71099;59.528;17.886;2023-08-08T00:41:39;4.70;;;0.75;;
70832;SDS011;71099;59.528;17.886;2023-08-08T00:44:05;2.25;;;0.77;;
70832;SDS011;71099;59.528;17.886;2023-08-08T00:46:30;2.97;;;0.90;;
70832;SDS011;71099;59.528;17.886;2023-08-08T00:48:56;1.70;;;0.75;;
70832;SDS011;71099;59.528;17.886;2023-08-08T00:51:21;3.67;;;0.70;;
70832;SDS011;71099;59.528;17.886;2023-08-08T00:53:49;5.53;;;0.63;;
70832;SDS011;71099;59.528;17.886;2023-08-08T00:56:15;2.45;;;0.88;;
70832;SDS011;71099;59.528;17.886;2023-08-08T00:58:42;3.08;;;1.00;;
70832;SDS011;71099;59.528;17.886;2023-08-08T01:01:10;2.10;;;0.60;;
70832;SDS011;71099;59.528;17.886;2023-08-08T01:03:35;6.32;;;1.08;;
70832;SDS011;71099;59.528;17.886;2023-08-08T01:06:23;2.03;;;0.75;;
70832;SDS011;71099;59.528;17.886;2023-08-08T01:08:57;3.53;;;1.15;;
70832;SDS011;71099;59.528;17.886;2023-08-08T01:11:29;2.65;;;0.80;;
70832;SDS011;71099;59.528;17.886;2023-08-08T01:13:57;7.00;;;0.90;;
70832;SDS011;71099;59.528;17.886;2023-08-08T01:16:23;3.17;;;0.90;;
70832;SDS011;71099;59.528;17.886;2023-08-08T01:18:51;5.28;;;1.23;;
70832;SDS011;71099;59.528;17.886;2023-08-08T01:21:17;2.92;;;0.68;;
70832;SDS011;71099;59.528;17.886;2023-08-08T01:23:46;3.85;;;1.08;;
70832;SDS011;71099;59.528;17.886;2023-08-08T01:26:18;4.53;;;0.80;;
70832;SDS011;71099;59.528;17.886;2023-08-08T01:28:46;5.35;;;0.77;;
70832;SDS011;71099;59.528;17.886;2023-08-08T01:31:12;3.30;;;0.75;;
70832;SDS011;71099;59.528;17.886;2023-08-08T01:33:37;5.00;;;1.52;;
70832;SDS011;71099;59.528;17.886;2023-08-08T01:36:05;3.38;;;0.93;;
70832;SDS011;71099;59.528;17.886;2023-08-08T01:38:53;2.50;;;1.05;;
70832;SDS011;71099;59.528;17.886;2023-08-08T01:41:29;2.60;;;0.98;;
70832;SDS011;71099;59.528;17.886;2023-08-08T01:43:56;3.33;;;0.73;;
70832;SDS011;71099;59.528;17.886;2023-08-08T01:46:22;2.10;;;0.70;;
70832;SDS011;71099;59.528;17.886;2023-08-08T01:48:49;3.33;;;1.20;;
70832;SDS011;71099;59.528;17.886;2023-08-08T01:51:15;3.75;;;0.80;;
70832;SDS011;71099;59.528;17.886;2023-08-08T01:53:40;3.13;;;1.42;;
70832;SDS011;71099;59.528;17.886;2023-08-08T01:56:06;1.25;;;0.50;;
70832;SDS011;71099;59.528;17.886;2023-08-08T01:58:31;2.47;;;0.80;;
70832;SDS011;71099;59.528;17.886;2023-08-08T02:00:57;3.22;;;1.08;;
70832;SDS011;71099;59.528;17.886;2023-08-08T02:03:22;4.38;;;0.90;;
70832;SDS011;71099;59.528;17.886;2023-08-08T02:05:48;4.43;;;1.10;;
70832;SDS011;71099;59.528;17.886;2023-08-08T02:08:13;2.88;;;0.75;;
70832;SDS011;71099;59.528;17.886;2023-08-08T02:10:39;2.17;;;0.68;;
70832;SDS011;71099;59.528;17.886;2023-08-08T02:13:04;4.40;;;1.40;;
70832;SDS011;71099;59.528;17.886;2023-08-08T02:15:29;3.45;;;1.00;;
70832;SDS011;71099;59.528;17.886;2023-08-08T02:17:55;2.42;;;1.40;;
70832;SDS011;71099;59.528;17.886;2023-08-08T02:20:20;4.22;;;0.88;;
70832;SDS011;71099;59.528;17.886;2023-08-08T02:22:46;3.15;;;1.10;;
70832;SDS011;71099;59.528;17.886;2023-08-08T02:25:12;1.80;;;0.60;;
70832;SDS011;71099;59.528;17.886;2023-08-08T02:27:37;4.13;;;1.05;;
70832;SDS011;71099;59.528;17.886;2023-08-08T02:30:03;2.20;;;0.80;;
70832;SDS011;71099;59.528;17.886;2023-08-08T02:32:29;5.25;;;2.08;;
70832;SDS011;71099;59.528;17.886;2023-08-08T02:34:54;2.65;;;0.85;;
70832;SDS011;71099;59.528;17.886;2023-08-08T02:37:19;4.20;;;1.27;;
70832;SDS011;71099;59.528;17.886;2023-08-08T02:39:45;3.38;;;0.70;;
70832;SDS011;71099;59.528;17.886;2023-08-08T02:42:10;4.38;;;1.33;;
70832;SDS011;71099;59.528;17.886;2023-08-08T02:44:36;5.45;;;0.90;;
70832;SDS011;71099;59.528;17.886;2023-08-08T02:47:01;3.90;;;1.40;;
70832;SDS011;71099;59.528;17.886;2023-08-08T02:49:27;4.35;;;0.82;;
70832;SDS011;71099;59.528;17.886;2023-08-08T02:51:52;2.78;;;0.70;;
70832;SDS011;71099;59.528;17.886;2023-08-08T02:54:17;2.63;;;1.02;;
70832;SDS011;71099;59.528;17.886;2023-08-08T02:56:43;4.25;;;1.05;;
70832;SDS011;71099;59.528;17.886;2023-08-08T02:59:08;4.80;;;1.23;;
70832;SDS011;71099;59.528;17.886;2023-08-08T03:01:34;2.33;;;0.82;;
70832;SDS011;71099;59.528;17.886;2023-08-08T03:04:04;5.85;;;1.10;;
70832;SDS011;71099;59.528;17.886;2023-08-08T03:06:30;5.57;;;1.42;;
70832;SDS011;71099;59.528;17.886;2023-08-08T03:08:55;1.92;;;1.10;;
70832;SDS011;71099;59.528;17.886;2023-08-08T03:11:20;5.05;;;1.33;;
70832;SDS011;71099;59.528;17.886;2023-08-08T03:13:46;3.70;;;1.42;;
70832;SDS011;71099;59.528;17.886;2023-08-08T03:16:11;3.33;;;0.90;;
70832;SDS011;71099;59.528;17.886;2023-08-08T03:18:37;3.25;;;1.17;;
70832;SDS011;71099;59.528;17.886;2023-08-08T03:21:02;4.75;;;1.10;;
70832;SDS011;71099;59.528;17.886;2023-08-08T03:23:27;5.63;;;1.33;;
70832;SDS011;71099;59.528;17.886;2023-08-08T03:25:53;6.13;;;1.48;;
70832;SDS011;71099;59.528;17.886;2023-08-08T03:28:18;3.80;;;0.93;;
70832;SDS011;71099;59.528;17.886;2023-08-08T03:30:43;3.80;;;0.95;;
70832;SDS011;71099;59.528;17.886;2023-08-08T03:33:09;3.90;;;1.23;;
70832;SDS011;71099;59.528;17.886;2023-08-08T03:35:34;3.38;;;1.30;;
70832;SDS011;71099;59.528;17.886;2023-08-08T03:38:00;2.70;;;1.20;;
70832;SDS011;71099;59.528;17.886;2023-08-08T03:40:25;2.53;;;1.00;;
70832;SDS011;71099;59.528;17.886;2023-08-08T03:42:50;5.53;;;1.40;;
70832;SDS011;71099;59.528;17.886;2023-08-08T03:45:16;9.75;;;2.75;;
70832;SDS011;71099;59.528;17.886;2023-08-08T03:47:41;5.65;;;1.50;;
70832;SDS011;71099;59.528;17.886;2023-08-08T03:50:07;3.30;;;1.23;;
70832;SDS011;71099;59.528;17.886;2023-08-08T03:52:34;2.72;;;1.40;;
70832;SDS011;71099;59.528;17.886;2023-08-08T03:55:01;3.95;;;1.27;;
70832;SDS011;71099;59.528;17.886;2023-08-08T03:57:26;9.82;;;1.90;;
70832;SDS011;71099;59.528;17.886;2023-08-08T03:59:51;8.32;;;2.63;;
70832;SDS011;71099;59.528;17.886;2023-08-08T04:02:17;3.00;;;1.65;;
70832;SDS011;71099;59.528;17.886;2023-08-08T04:04:42;7.45;;;1.63;;
70832;SDS011;71099;59.528;17.886;2023-08-08T04:07:08;3.20;;;1.25;;
70832;SDS011;71099;59.528;17.886;2023-08-08T04:09:33;3.88;;;1.30;;
70832;SDS011;71099;59.528;17.886;2023-08-08T04:11:58;5.30;;;1.27;;
70832;SDS011;71099;59.528;17.886;2023-08-08T04:14:24;5.63;;;1.55;;
70832;SDS011;71099;59.528;17.886;2023-08-08T04:16:49;4.65;;;1.20;;
70832;SDS011;71099;59.528;17.886;2023-08-08T04:19:15;6.22;;;1.45;;
70832;SDS011;71099;59.528;17.886;2023-08-08T04:21:40;5.93;;;1.17;;
70832;SDS011;71099;59.528;17.886;2023-08-08T04:24:06;2.00;;;1.48;;
70832;SDS011;71099;59.528;17.886;2023-08-08T04:26:33;1.55;;;1.13;;
70832;SDS011;71099;59.528;17.886;2023-08-08T04:28:59;4.70;;;1.52;;
70832;SDS011;71099;59.528;17.886;2023-08-08T04:31:24;4.28;;;1.30;;
70832;SDS011;71099;59.528;17.886;2023-08-08T04:33:51;4.68;;;1.30;;
70832;SDS011;71099;59.528;17.886;2023-08-08T04:36:16;4.32;;;1.00;;
70832;SDS011;71099;59.528;17.886;2023-08-08T04:38:42;1.38;;;0.90;;
70832;SDS011;71099;59.528;17.886;2023-08-08T04:41:07;4.75;;;1.30;;
70832;SDS011;71099;59.528;17.886;2023-08-08T04:43:33;5.00;;;1.60;;
70832;SDS011;71099;59.528;17.886;2023-08-08T04:45:58;4.05;;;1.23;;
70832;SDS011;71099;59.528;17.886;2023-08-08T04:48:24;1.50;;;0.82;;
70832;SDS011;71099;59.528;17.886;2023-08-08T04:50:49;2.97;;;1.30;;
70832;SDS011;71099;59.528;17.886;2023-08-08T04:53:14;5.30;;;1.10;;
70832;SDS011;71099;59.528;17.886;2023-08-08T04:55:40;2.63;;;0.88;;
70832;SDS011;71099;59.528;17.886;2023-08-08T04:58:05;2.15;;;1.10;;
70832;SDS011;71099;59.528;17.886;2023-08-08T05:00:31;1.92;;;0.73;;
70832;SDS011;71099;59.528;17.886;2023-08-08T05:02:56;0.90;;;0.68;;
70832;SDS011;71099;59.528;17.886;2023-08-08T05:05:22;2.90;;;1.27;;
70832;SDS011;71099;59.528;17.886;2023-08-08T05:07:47;1.35;;;0.77;;
70832;SDS011;71099;59.528;17.886;2023-08-08T05:10:12;3.10;;;0.82;;
70832;SDS011;71099;59.528;17.886;2023-08-08T05:12:38;1.95;;;0.80;;
70832;SDS011;71099;59.528;17.886;2023-08-08T05:15:04;2.65;;;0.63;;
70832;SDS011;71099;59.528;17.886;2023-08-08T05:17:30;0.88;;;0.50;;
70832;SDS011;71099;59.528;17.886;2023-08-08T05:19:57;0.70;;;0.28;;
70832;SDS011;71099;59.528;17.886;2023-08-08T05:22:22;4.57;;;0.50;;
70832;SDS011;71099;59.528;17.886;2023-08-08T05:24:48;0.73;;;0.35;;
70832;SDS011;71099;59.528;17.886;2023-08-08T05:27:13;0.45;;;0.45;;
70832;SDS011;71099;59.528;17.886;2023-08-08T05:29:38;2.17;;;0.40;;
70832;SDS011;71099;59.528;17.886;2023-08-08T05:32:06;0.50;;;0.40;;
70832;SDS011;71099;59.528;17.886;2023-08-08T05:34:32;0.70;;;0.70;;
70832;SDS011;71099;59.528;17.886;2023-08-08T05:36:58;0.98;;;0.43;;
70832;SDS011;71099;59.528;17.886;2023-08-08T05:39:23;0.43;;;0.30;;
70832;SDS011;71099;59.528;17.886;2023-08-08T05:41:49;3.20;;;0.68;;
70832;SDS011;71099;59.528;17.886;2023-08-08T05:44:14;1.70;;;0.50;;
70832;SDS011;71099;59.528;17.886;2023-08-08T05:46:40;1.38;;;0.65;;
70832;SDS011;71099;59.528;17.886;2023-08-08T05:49:05;1.00;;;0.43;;
70832;SDS011;71099;59.528;17.886;2023-08-08T05:51:31;0.68;;;0.55;;
70832;SDS011;71099;59.528;17.886;2023-08-08T05:53:57;2.13;;;0.30;;
70832;SDS011;71099;59.528;17.886;2023-08-08T05:56:22;1.60;;;0.65;;
70832;SDS011;71099;59.528;17.886;2023-08-08T05:58:48;0.32;;;0.30;;
70832;SDS011;71099;59.528;17.886;2023-08-08T06:01:13;1.20;;;0.40;;
70832;SDS011;71099;59.528;17.886;2023-08-08T06:03:38;0.50;;;0.30;;
70832;SDS011;71099;59.528;17.886;2023-08-08T06:06:04;1.45;;;0.47;;
70832;SDS011;71099;59.528;17.886;2023-08-08T06:08:29;2.25;;;0.60;;
70832;SDS011;71099;59.528;17.886;2023-08-08T06:10:55;0.88;;;0.30;;
70832;SDS011;71099;59.528;17.886;2023-08-08T06:13:20;0.30;;;0.30;;
70832;SDS011;71099;59.528;17.886;2023-08-08T06:15:46;2.15;;;0.40;;
70832;SDS011;71099;59.528;17.886;2023-08-08T06:18:11;0.32;;;0.22;;
70832;SDS011;71099;59.528;17.886;2023-08-08T06:20:36;0.52;;;0.30;;
70832;SDS011;71099;59.528;17.886;2023-08-08T06:23:02;0.93;;;0.50;;
70832;SDS011;71099;59.528;17.886;2023-08-08T06:25:27;1.02;;;0.40;;
70832;SDS011;71099;59.528;17.886;2023-08-08T06:27:53;1.88;;;0.70;;
70832;SDS011;71099;59.528;17.886;2023-08-08T06:30:18;1.05;;;0.52;;
70832;SDS011;71099;59.528;17.886;2023-08-08T06:32:44;0.38;;;0.28;;
70832;SDS011;71099;59.528;17.886;2023-08-08T06:35:09;0.32;;;0.30;;
70832;SDS011;71099;59.528;17.886;2023-08-08T06:37:35;0.73;;;0.22;;
70832;SDS011;71099;59.528;17.886;2023-08-08T06:40:00;2.45;;;0.45;;
70832;SDS011;71099;59.528;17.886;2023-08-08T06:42:26;2.58;;;0.57;;
70832;SDS011;71099;59.528;17.886;2023-08-08T06:44:51;1.55;;;0.40;;
70832;SDS011;71099;59.528;17.886;2023-08-08T06:47:17;0.20;;;0.20;;
70832;SDS011;71099;59.528;17.886;2023-08-08T06:49:42;1.10;;;0.38;;
70832;SDS011;71099;59.528;17.886;2023-08-08T06:52:08;0.35;;;0.30;;
70832;SDS011;71099;59.528;17.886;2023-08-08T06:54:33;0.40;;;0.40;;
70832;SDS011;71099;59.528;17.886;2023-08-08T06:56:58;1.23;;;0.50;;
70832;SDS011;71099;59.528;17.886;2023-08-08T06:59:25;1.02;;;0.43;;
70832;SDS011;71099;59.528;17.886;2023-08-08T07:01:51;1.42;;;0.38;;
70832;SDS011;71099;59.528;17.886;2023-08-08T07:04:17;0.45;;;0.30;;
70832;SDS011;71099;59.528;17.886;2023-08-08T07:06:43;1.05;;;0.45;;
70832;SDS011;71099;59.528;17.886;2023-08-08T07:09:12;2.17;;;0.47;;
70832;SDS011;71099;59.528;17.886;2023-08-08T07:11:39;0.50;;;0.40;;
70832;SDS011;71099;59.528;17.886;2023-08-08T07:14:05;2.05;;;0.28;;
70832;SDS011;71099;59.528;17.886;2023-08-08T07:16:31;0.68;;;0.30;;
70832;SDS011;71099;59.528;17.886;2023-08-08T07:18:56;0.57;;;0.30;;
70832;SDS011;71099;59.528;17.886;2023-08-08T07:21:22;0.40;;;0.40;;
70832;SDS011;71099;59.528;17.886;2023-08-08T07:23:47;0.43;;;0.28;;
70832;SDS011;71099;59.528;17.886;2023-08-08T07:26:13;0.98;;;0.30;;
70832;SDS011;71099;59.528;17.886;2023-08-08T07:28:38;0.75;;;0.30;;
70832;SDS011;71099;59.528;17.886;2023-08-08T07:31:04;3.80;;;0.93;;
70832;SDS011;71099;59.528;17.886;2023-08-08T07:33:29;0.85;;;0.40;;
70832;SDS011;71099;59.528;17.886;2023-08-08T07:35:55;2.08;;;0.40;;
70832;SDS011;71099;59.528;17.886;2023-08-08T07:38:20;0.40;;;0.40;;
70832;SDS011;71099;59.528;17.886;2023-08-08T07:40:46;1.80;;;0.90;;
70832;SDS011;71099;59.528;17.886;2023-08-08T07:43:12;1.48;;;0.43;;
70832;SDS011;71099;59.528;17.886;2023-08-08T07:45:38;0.95;;;0.60;;
70832;SDS011;71099;59.528;17.886;2023-08-08T07:48:04;2.30;;;0.55;;
70832;SDS011;71099;59.528;17.886;2023-08-08T07:50:30;0.68;;;0.40;;
70832;SDS011;71099;59.528;17.886;2023-08-08T07:52:55;0.90;;;0.75;;
70832;SDS011;71099;59.528;17.886;2023-08-08T07:55:20;0.80;;;0.50;;
70832;SDS011;71099;59.528;17.886;2023-08-08T07:57:46;0.40;;;0.40;;
70832;SDS011;71099;59.528;17.886;2023-08-08T08:00:11;1.02;;;0.50;;
70832;SDS011;71099;59.528;17.886;2023-08-08T08:02:38;2.97;;;0.60;;
70832;SDS011;71099;59.528;17.886;2023-08-08T08:05:05;0.73;;;0.40;;
70832;SDS011;71099;59.528;17.886;2023-08-08T08:07:32;0.98;;;0.47;;
70832;SDS011;71099;59.528;17.886;2023-08-08T08:09:59;0.63;;;0.50;;
70832;SDS011;71099;59.528;17.886;2023-08-08T08:12:24;0.40;;;0.38;;
70832;SDS011;71099;59.528;17.886;2023-08-08T08:14:50;2.85;;;0.50;;
70832;SDS011;71099;59.528;17.886;2023-08-08T08:17:15;1.00;;;0.65;;
70832;SDS011;71099;59.528;17.886;2023-08-08T08:19:40;0.70;;;0.40;;
70832;SDS011;71099;59.528;17.886;2023-08-08T08:22:06;0.73;;;0.68;;
70832;SDS011;71099;59.528;17.886;2023-08-08T08:24:31;1.00;;;0.75;;
70832;SDS011;71099;59.528;17.886;2023-08-08T08:26:56;1.58;;;0.68;;
70832;SDS011;71099;59.528;17.886;2023-08-08T08:29:22;0.88;;;0.60;;
70832;SDS011;71099;59.528;17.886;2023-08-08T08:31:47;1.77;;;0.88;;
70832;SDS011;71099;59.528;17.886;2023-08-08T08:34:13;0.43;;;0.40;;
70832;SDS011;71099;59.528;17.886;2023-08-08T08:36:38;1.20;;;0.90;;
70832;SDS011;71099;59.528;17.886;2023-08-08T08:39:04;1.35;;;1.00;;
70832;SDS011;71099;59.528;17.886;2023-08-08T08:41:29;0.98;;;0.98;;
70832;SDS011;71099;59.528;17.886;2023-08-08T08:43:57;1.35;;;0.98;;
70832;SDS011;71099;59.528;17.886;2023-08-08T08:46:22;2.05;;;0.93;;
70832;SDS011;71099;59.528;17.886;2023-08-08T08:48:50;1.00;;;0.88;;
70832;SDS011;71099;59.528;17.886;2023-08-08T08:51:19;1.60;;;0.80;;
70832;SDS011;71099;59.528;17.886;2023-08-08T08:53:45;1.58;;;1.13;;
70832;SDS011;71099;59.528;17.886;2023-08-08T08:56:14;1.58;;;0.93;;
70832;SDS011;71099;59.528;17.886;2023-08-08T08:58:41;1.90;;;1.02;;
70832;SDS011;71099;59.528;17.886;2023-08-08T09:01:07;4.07;;;1.13;;
70832;SDS011;71099;59.528;17.886;2023-08-08T09:03:34;2.63;;;0.60;;
70832;SDS011;71099;59.528;17.886;2023-08-08T09:06:04;0.82;;;0.70;;
70832;SDS011;71099;59.528;17.886;2023-08-08T09:08:30;0.80;;;0.80;;
70832;SDS011;71099;59.528;17.886;2023-08-08T09:10:55;3.38;;;1.05;;
70832;SDS011;71099;59.528;17.886;2023-08-08T09:13:22;1.77;;;1.00;;
70832;SDS011;71099;59.528;17.886;2023-08-08T09:15:48;1.35;;;0.80;;
70832;SDS011;71099;59.528;17.886;2023-08-08T09:18:16;1.38;;;1.10;;
70832;SDS011;71099;59.528;17.886;2023-08-08T09:20:46;3.80;;;1.63;;
70832;SDS011;71099;59.528;17.886;2023-08-08T09:23:13;1.15;;;1.13;;
70832;SDS011;71099;59.528;17.886;2023-08-08T09:25:38;1.70;;;1.02;;
70832;SDS011;71099;59.528;17.886;2023-08-08T09:28:04;0.70;;;0.70;;
70832;SDS011;71099;59.528;17.886;2023-08-08T09:30:30;2.15;;;0.65;;
70832;SDS011;71099;59.528;17.886;2023-08-08T09:32:58;0.73;;;0.50;;
70832;SDS011;71099;59.528;17.886;2023-08-08T09:35:24;1.08;;;0.60;;
70832;SDS011;71099;59.528;17.886;2023-08-08T09:37:51;0.82;;;0.47;;
70832;SDS011;71099;59.528;17.886;2023-08-08T09:40:18;1.88;;;0.80;;
70832;SDS011;71099;59.528;17.886;2023-08-08T09:42:46;0.75;;;0.68;;
70832;SDS011;71099;59.528;17.886;2023-08-08T09:45:13;1.30;;;0.47;;
70832;SDS011;71099;59.528;17.886;2023-08-08T09:47:39;0.80;;;0.50;;
70832;SDS011;71099;59.528;17.886;2023-08-08T09:50:04;0.50;;;0.50;;
70832;SDS011;71099;59.528;17.886;2023-08-08T09:52:31;0.25;;;0.25;;
70832;SDS011;71099;59.528;17.886;2023-08-08T09:54:58;0.45;;;0.40;;
70832;SDS011;71099;59.528;17.886;2023-08-08T09:57:25;0.77;;;0.70;;
70832;SDS011;71099;59.528;17.886;2023-08-08T09:59:51;1.08;;;0.30;;
70832;SDS011;71099;59.528;17.886;2023-08-08T10:02:17;0.60;;;0.40;;
70832;SDS011;71099;59.528;17.886;2023-08-08T10:04:46;0.43;;;0.40;;
70832;SDS011;71099;59.528;17.886;2023-08-08T10:07:13;0.38;;;0.38;;
70832;SDS011;71099;59.528;17.886;2023-08-08T10:09:38;0.88;;;0.63;;
70832;SDS011;71099;59.528;17.886;2023-08-08T10:12:04;0.73;;;0.50;;
70832;SDS011;71099;59.528;17.886;2023-08-08T10:14:31;1.17;;;0.60;;
70832;SDS011;71099;59.528;17.886;2023-08-08T10:17:01;0.60;;;0.60;;
70832;SDS011;71099;59.528;17.886;2023-08-08T10:19:28;1.17;;;0.73;;
70832;SDS011;71099;59.528;17.886;2023-08-08T10:21:58;0.75;;;0.75;;
70832;SDS011;71099;59.528;17.886;2023-08-08T10:24:24;0.82;;;0.65;;
70832;SDS011;71099;59.528;17.886;2023-08-08T10:26:56;2.47;;;1.10;;
70832;SDS011;71099;59.528;17.886;2023-08-08T10:29:25;1.17;;;0.90;;
70832;SDS011;71099;59.528;17.886;2023-08-08T10:32:12;1.13;;;0.98;;
70832;SDS011;71099;59.528;17.886;2023-08-08T10:34:46;1.30;;;1.20;;
70832;SDS011;71099;59.528;17.886;2023-08-08T10:37:16;2.92;;;1.20;;
70832;SDS011;71099;59.528;17.886;2023-08-08T10:39:54;3.30;;;1.27;;
70832;SDS011;71099;59.528;17.886;2023-08-08T10:42:23;0.90;;;0.90;;
70832;SDS011;71099;59.528;17.886;2023-08-08T10:44:54;1.92;;;1.20;;
70832;SDS011;71099;59.528;17.886;2023-08-08T10:47:22;4.32;;;1.77;;
70832;SDS011;71099;59.528;17.886;2023-08-08T10:50:15;2.58;;;1.25;;
70832;SDS011;71099;59.528;17.886;2023-08-08T10:55:21;4.20;;;0.80;;
70832;SDS011;71099;59.528;17.886;2023-08-08T11:00:28;0.85;;;0.40;;
70832;SDS011;71099;59.528;17.886;2023-08-08T11:02:56;0.70;;;0.50;;
70832;SDS011;71099;59.528;17.886;2023-08-08T11:05:23;1.75;;;0.60;;
70832;SDS011;71099;59.528;17.886;2023-08-08T11:07:49;0.57;;;0.57;;
70832;SDS011;71099;59.528;17.886;2023-08-08T11:10:15;1.17;;;0.60;;
70832;SDS011;71099;59.528;17.886;2023-08-08T11:12:41;0.77;;;0.43;;
70832;SDS011;71099;59.528;17.886;2023-08-08T11:15:07;1.65;;;0.40;;
70832;SDS011;71099;59.528;17.886;2023-08-08T11:17:33;0.75;;;0.40;;
70832;SDS011;71099;59.528;17.886;2023-08-08T11:19:58;1.55;;;0.70;;
70832;SDS011;71099;59.528;17.886;2023-08-08T11:22:24;1.35;;;0.50;;
70832;SDS011;71099;59.528;17.886;2023-08-08T11:24:49;0.95;;;0.73;;
70832;SDS011;71099;59.528;17.886;2023-08-08T11:27:16;0.75;;;0.40;;
70832;SDS011;71099;59.528;17.886;2023-08-08T11:29:48;0.73;;;0.45;;
70832;SDS011;71099;59.528;17.886;2023-08-08T11:32:15;1.55;;;0.70;;
70832;SDS011;71099;59.528;17.886;2023-08-08T11:34:41;0.60;;;0.60;;
70832;SDS011;71099;59.528;17.886;2023-08-08T11:37:07;1.73;;;0.65;;
70832;SDS011;71099;59.528;17.886;2023-08-08T11:39:33;2.15;;;0.80;;
70832;SDS011;71099;59.528;17.886;2023-08-08T11:41:59;2.58;;;0.60;;
70832;SDS011;71099;59.528;17.886;2023-08-08T11:44:25;0.47;;;0.47;;
70832;SDS011;71099;59.528;17.886;2023-08-08T11:46:51;0.68;;;0.45;;
70832;SDS011;71099;59.528;17.886;2023-08-08T11:49:16;1.85;;;0.40;;
70832;SDS011;71099;59.528;17.886;2023-08-08T11:51:43;2.58;;;0.70;;
70832;SDS011;71099;59.528;17.886;2023-08-08T11:54:10;0.93;;;0.60;;
70832;SDS011;71099;59.528;17.886;2023-08-08T11:56:36;0.88;;;0.50;;
70832;SDS011;71099;59.528;17.886;2023-08-08T11:59:02;1.17;;;0.65;;
70832;SDS011;71099;59.528;17.886;2023-08-08T12:01:28;0.93;;;0.60;;
70832;SDS011;71099;59.528;17.886;2023-08-08T12:03:55;0.70;;;0.60;;
70832;SDS011;71099;59.528;17.886;2023-08-08T12:06:21;0.60;;;0.40;;
70832;SDS011;71099;59.528;17.886;2023-08-08T12:08:47;0.68;;;0.47;;
70832;SDS011;71099;59.528;17.886;2023-08-08T12:11:13;1.27;;;0.80;;
70832;SDS011;71099;59.528;17.886;2023-08-08T12:13:40;1.67;;;0.75;;
70832;SDS011;71099;59.528;17.886;2023-08-08T12:16:11;1.15;;;0.85;;
70832;SDS011;71099;59.528;17.886;2023-08-08T12:18:38;1.85;;;0.77;;
70832;SDS011;71099;59.528;17.886;2023-08-08T12:21:04;0.85;;;0.60;;
70832;SDS011;71099;59.528;17.886;2023-08-08T12:23:30;1.50;;;0.90;;
70832;SDS011;71099;59.528;17.886;2023-08-08T12:25:57;1.13;;;0.50;;
70832;SDS011;71099;59.528;17.886;2023-08-08T12:28:23;1.42;;;0.75;;
70832;SDS011;71099;59.528;17.886;2023-08-08T12:30:48;0.65;;;0.63;;
70832;SDS011;71099;59.528;17.886;2023-08-08T12:33:14;2.95;;;0.60;;
70832;SDS011;71099;59.528;17.886;2023-08-08T12:35:39;1.98;;;0.63;;
70832;SDS011;71099;59.528;17.886;2023-08-08T12:38:05;2.03;;;0.75;;
70832;SDS011;71099;59.528;17.886;2023-08-08T12:40:30;1.45;;;0.70;;
70832;SDS011;71099;59.528;17.886;2023-08-08T12:42:55;0.70;;;0.60;;
70832;SDS011;71099;59.528;17.886;2023-08-08T12:45:21;1.60;;;0.60;;
70832;SDS011;71099;59.528;17.886;2023-08-08T12:47:47;3.63;;;1.00;;
70832;SDS011;71099;59.528;17.886;2023-08-08T12:50:12;2.47;;;0.98;;
70832;SDS011;71099;59.528;17.886;2023-08-08T12:52:38;2.00;;;0.55;;
70832;SDS011;71099;59.528;17.886;2023-08-08T12:55:04;3.03;;;0.50;;
70832;SDS011;71099;59.528;17.886;2023-08-08T12:57:30;3.13;;;0.90;;
70832;SDS011;71099;59.528;17.886;2023-08-08T12:59:56;2.75;;;0.70;;
70832;SDS011;71099;59.528;17.886;2023-08-08T13:02:21;1.45;;;0.52;;
70832;SDS011;71099;59.528;17.886;2023-08-08T13:04:47;1.40;;;0.60;;
70832;SDS011;71099;59.528;17.886;2023-08-08T13:07:12;2.25;;;0.68;;
70832;SDS011;71099;59.528;17.886;2023-08-08T13:09:38;2.92;;;0.88;;
70832;SDS011;71099;59.528;17.886;2023-08-08T13:12:04;2.97;;;0.55;;
70832;SDS011;71099;59.528;17.886;2023-08-08T13:14:30;1.58;;;0.60;;
70832;SDS011;71099;59.528;17.886;2023-08-08T13:16:55;3.83;;;0.77;;
70832;SDS011;71099;59.528;17.886;2023-08-08T13:19:21;1.58;;;0.52;;
70832;SDS011;71099;59.528;17.886;2023-08-08T13:21:49;1.80;;;0.50;;
70832;SDS011;71099;59.528;17.886;2023-08-08T13:24:16;4.50;;;0.70;;
70832;SDS011;71099;59.528;17.886;2023-08-08T13:26:41;3.10;;;0.77;;
70832;SDS011;71099;59.528;17.886;2023-08-08T13:29:07;1.95;;;0.82;;
70832;SDS011;71099;59.528;17.886;2023-08-08T13:31:32;1.60;;;0.47;;
70832;SDS011;71099;59.528;17.886;2023-08-08T13:33:58;2.30;;;0.75;;
70832;SDS011;71099;59.528;17.886;2023-08-08T13:36:23;2.40;;;0.60;;
70832;SDS011;71099;59.528;17.886;2023-08-08T13:38:49;4.47;;;1.20;;
70832;SDS011;71099;59.528;17.886;2023-08-08T13:41:14;2.67;;;0.88;;
70832;SDS011;71099;59.528;17.886;2023-08-08T13:43:40;2.50;;;0.88;;
70832;SDS011;71099;59.528;17.886;2023-08-08T13:46:05;1.38;;;0.75;;
70832;SDS011;71099;59.528;17.886;2023-08-08T13:48:33;0.95;;;0.85;;
70832;SDS011;71099;59.528;17.886;2023-08-08T13:50:59;1.02;;;0.50;;
70832;SDS011;71099;59.528;17.886;2023-08-08T13:53:25;3.35;;;0.90;;
70832;SDS011;71099;59.528;17.886;2023-08-08T13:55:50;4.43;;;0.70;;
70832;SDS011;71099;59.528;17.886;2023-08-08T13:58:15;4.63;;;1.88;;
70832;SDS011;71099;59.528;17.886;2023-08-08T14:00:41;0.73;;;0.63;;
70832;SDS011;71099;59.528;17.886;2023-08-08T14:03:06;3.00;;;1.15;;
70832;SDS011;71099;59.528;17.886;2023-08-08T14:05:32;2.25;;;1.10;;
70832;SDS011;71099;59.528;17.886;2023-08-08T14:07:57;4.70;;;1.10;;
70832;SDS011;71099;59.528;17.886;2023-08-08T14:10:22;2.25;;;0.85;;
70832;SDS011;71099;59.528;17.886;2023-08-08T14:12:48;2.58;;;0.65;;
70832;SDS011;71099;59.528;17.886;2023-08-08T14:15:13;2.28;;;1.30;;
70832;SDS011;71099;59.528;17.886;2023-08-08T14:17:39;4.57;;;0.88;;
70832;SDS011;71099;59.528;17.886;2023-08-08T14:20:04;4.22;;;0.80;;
70832;SDS011;71099;59.528;17.886;2023-08-08T14:22:30;9.23;;;1.52;;
70832;SDS011;71099;59.528;17.886;2023-08-08T14:24:56;2.97;;;0.70;;
70832;SDS011;71099;59.528;17.886;2023-08-08T14:27:21;1.58;;;0.50;;
70832;SDS011;71099;59.528;17.886;2023-08-08T14:29:47;2.50;;;0.70;;
70832;SDS011;71099;59.528;17.886;2023-08-08T14:32:12;2.83;;;0.82;;